createdAt,value
2022-09-06T00:00:18.445Z,3.55
2022-09-06T00:02:45.690Z,5.35
2022-09-06T00:05:13.563Z,4.35
2022-09-06T00:07:41.314Z,4.38
2022-09-06T00:10:09.357Z,3.33
2022-09-06T00:12:37.143Z,4.47
2022-09-06T00:15:05.781Z,3.65
2022-09-06T00:17:33.737Z,5.00
2022-09-06T00:20:00.741Z,5.15
2022-09-06T00:22:27.628Z,4.65
2022-09-06T00:24:54.515Z,3.38
2022-09-06T00:27:21.497Z,4.75
2022-09-06T00:29:48.430Z,4.95
2022-09-06T00:32:15.355Z,5.63
2022-09-06T00:34:42.361Z,6.60
2022-09-06T00:37:09.240Z,5.15
2022-09-06T00:39:36.261Z,4.82
2022-09-06T00:42:03.157Z,4.30
2022-09-06T00:44:29.995Z,5.15
2022-09-06T00:46:56.879Z,6.05
2022-09-06T00:49:31.595Z,5.40
2022-09-06T00:52:03.680Z,5.80
2022-09-06T00:54:31.232Z,4.00
2022-09-06T00:56:59.468Z,3.33
2022-09-06T00:59:33.284Z,5.63
2022-09-06T01:02:00.379Z,4.60
2022-09-06T01:04:28.592Z,4.85
2022-09-06T01:07:13.762Z,5.57
2022-09-06T01:09:55.976Z,3.78
2022-09-06T01:12:48.631Z,4.10
2022-09-06T01:15:29.671Z,5.13
2022-09-06T01:18:14.408Z,4.35
2022-09-06T01:20:57.497Z,4.05
2022-09-06T01:24:01.674Z,4.10
2022-09-06T01:26:46.399Z,5.30
2022-09-06T01:29:35.074Z,4.15
2022-09-06T01:32:17.247Z,5.38
2022-09-06T01:34:51.032Z,7.07
2022-09-06T01:37:23.179Z,7.32
2022-09-06T01:39:50.131Z,6.35
2022-09-06T01:42:25.400Z,9.73
2022-09-06T01:45:01.228Z,6.55
2022-09-06T01:47:48.389Z,6.10
2022-09-06T01:50:30.080Z,7.82
2022-09-06T01:53:36.082Z,6.90
2022-09-06T01:56:31.817Z,7.93
2022-09-06T01:59:22.679Z,9.35
2022-09-06T02:02:11.473Z,7.93
2022-09-06T02:04:49.625Z,6.55
2022-09-06T02:07:23.622Z,6.57
2022-09-06T02:09:57.641Z,7.32
2022-09-06T02:12:28.051Z,5.57
2022-09-06T02:15:11.979Z,7.65
2022-09-06T02:18:02.385Z,7.77
2022-09-06T02:20:36.809Z,6.03
2022-09-06T02:25:49.378Z,7.78
2022-09-06T02:28:16.817Z,7.43
2022-09-06T02:30:48.985Z,6.78
2022-09-06T02:33:29.327Z,4.70
2022-09-06T02:35:57.180Z,6.10
2022-09-06T02:38:27.050Z,4.47
2022-09-06T02:40:56.031Z,5.20
2022-09-06T02:43:22.927Z,5.05
2022-09-06T02:45:49.927Z,5.00
2022-09-06T02:48:17.460Z,6.45
2022-09-06T02:50:44.300Z,5.88
2022-09-06T02:53:13.786Z,6.38
2022-09-06T02:55:41.121Z,5.38
2022-09-06T02:58:10.275Z,7.35
2022-09-06T03:00:38.023Z,5.05
2022-09-06T03:03:05.771Z,5.05
2022-09-06T03:05:33.249Z,4.70
2022-09-06T03:08:00.516Z,6.63
2022-09-06T03:10:50.019Z,5.32
2022-09-06T03:13:17.117Z,5.93
2022-09-06T03:15:44.523Z,6.40
2022-09-06T03:18:11.481Z,10.20
2022-09-06T03:20:38.344Z,6.28
2022-09-06T03:23:05.589Z,5.65
2022-09-06T03:25:32.644Z,9.82
2022-09-06T03:27:59.517Z,7.80
2022-09-06T03:30:26.372Z,8.30
2022-09-06T03:32:54.157Z,6.32
2022-09-06T03:35:21.012Z,7.65
2022-09-06T03:37:47.877Z,9.35
2022-09-06T03:40:14.779Z,5.47
2022-09-06T03:42:41.663Z,8.60
2022-09-06T03:45:09.043Z,7.55
2022-09-06T03:47:36.089Z,5.63
2022-09-06T03:50:03.047Z,8.48
2022-09-06T03:52:30.046Z,5.75
2022-09-06T03:54:56.969Z,5.95
2022-09-06T03:57:23.980Z,3.88
2022-09-06T03:59:50.852Z,6.18
2022-09-06T04:02:18.054Z,5.03
2022-09-06T04:04:44.942Z,8.18
2022-09-06T04:07:11.938Z,7.07
2022-09-06T04:09:38.914Z,5.60
2022-09-06T04:12:05.871Z,6.55
2022-09-06T04:14:32.705Z,5.93
2022-09-06T04:16:59.584Z,4.60
2022-09-06T04:19:26.472Z,4.38
2022-09-06T04:21:53.388Z,6.32
2022-09-06T04:24:20.246Z,6.43
2022-09-06T04:26:47.126Z,5.80
2022-09-06T04:29:14.060Z,4.75
2022-09-06T04:31:41.061Z,6.00
2022-09-06T04:34:08.012Z,7.22
2022-09-06T04:36:34.868Z,5.40
2022-09-06T04:39:01.727Z,5.35
2022-09-06T04:41:28.598Z,5.35
2022-09-06T04:43:55.459Z,6.35
2022-09-06T04:46:25.302Z,4.20
2022-09-06T04:48:53.765Z,4.80
2022-09-06T04:51:22.112Z,8.20
2022-09-06T04:53:49.204Z,10.23
2022-09-06T04:56:19.372Z,4.25
2022-09-06T04:58:47.357Z,7.55
2022-09-06T05:01:14.601Z,6.18
2022-09-06T05:03:41.553Z,5.55
2022-09-06T05:06:14.455Z,6.22
2022-09-06T05:08:42.227Z,4.45
2022-09-06T05:11:09.617Z,5.53
2022-09-06T05:13:37.017Z,5.10
2022-09-06T05:16:06.546Z,5.68
2022-09-06T05:18:34.154Z,6.68
2022-09-06T05:21:01.465Z,5.00
2022-09-06T05:23:28.690Z,7.90
2022-09-06T05:25:55.556Z,5.95
2022-09-06T05:28:22.422Z,6.80
2022-09-06T05:30:49.354Z,4.47
2022-09-06T05:33:22.183Z,5.07
2022-09-06T05:35:49.773Z,3.67
2022-09-06T05:38:16.933Z,3.17
2022-09-06T05:40:43.877Z,4.95
2022-09-06T05:43:10.772Z,4.28
2022-09-06T05:45:37.751Z,3.70
2022-09-06T05:48:04.700Z,3.53
2022-09-06T05:50:31.565Z,7.25
2022-09-06T05:52:58.461Z,4.43
2022-09-06T05:55:25.361Z,6.20
2022-09-06T05:57:52.328Z,5.40
2022-09-06T06:00:19.473Z,8.68
2022-09-06T06:02:50.275Z,4.90
2022-09-06T06:05:17.392Z,4.28
2022-09-06T06:07:44.278Z,9.65
2022-09-06T06:10:11.225Z,6.82
2022-09-06T06:12:38.096Z,7.88
2022-09-06T06:15:05.917Z,6.13
2022-09-06T06:17:33.005Z,7.20
2022-09-06T06:20:00.009Z,9.43
2022-09-06T06:22:26.957Z,7.10
2022-09-06T06:24:53.805Z,5.72
2022-09-06T06:27:20.728Z,7.80
2022-09-06T06:29:47.654Z,5.88
2022-09-06T06:32:14.568Z,8.65
2022-09-06T06:34:41.453Z,8.27
2022-09-06T06:37:08.370Z,8.10
2022-09-06T06:39:35.288Z,9.82
2022-09-06T06:45:50.566Z,6.55
2022-09-06T06:48:17.977Z,5.10
2022-09-06T06:50:45.030Z,6.95
2022-09-06T06:53:11.905Z,9.30
2022-09-06T06:55:39.211Z,6.03
2022-09-06T06:58:06.063Z,5.93
2022-09-06T07:00:33.043Z,7.43
2022-09-06T07:16:15.659Z,8.25
2022-09-06T07:18:43.449Z,4.00
2022-09-06T07:24:06.518Z,4.40
2022-09-06T07:26:34.982Z,7.25
2022-09-06T07:29:05.312Z,4.63
2022-09-06T07:34:20.822Z,9.50
2022-09-06T07:36:48.653Z,3.45
2022-09-06T07:39:15.670Z,4.65
2022-09-06T07:41:43.568Z,7.68
2022-09-06T07:44:10.596Z,7.70
2022-09-06T07:46:37.572Z,7.28
2022-09-06T07:49:06.117Z,8.00
2022-09-06T07:51:33.175Z,7.25
2022-09-06T07:56:48.094Z,4.82
2022-09-06T07:59:15.505Z,7.78
2022-09-06T08:01:42.676Z,6.85
2022-09-06T08:04:12.923Z,7.32
2022-09-06T08:09:35.817Z,6.90
2022-09-06T08:12:07.090Z,7.90
2022-09-06T08:14:34.986Z,3.45
2022-09-06T08:17:02.831Z,4.55
2022-09-06T08:19:29.740Z,3.85
2022-09-06T08:21:56.835Z,3.30
2022-09-06T08:24:23.871Z,2.08
2022-09-06T08:26:51.031Z,2.25
2022-09-06T08:29:19.932Z,3.72
2022-09-06T08:31:47.224Z,5.65
2022-09-06T08:34:14.510Z,7.10
2022-09-06T08:36:41.699Z,3.28
2022-09-06T08:39:10.407Z,4.32
2022-09-06T08:41:58.621Z,2.92
2022-09-06T08:51:24.707Z,1.92
2022-09-06T08:57:53.221Z,3.78
2022-09-06T09:00:20.783Z,2.65
2022-09-06T09:02:59.389Z,3.53
2022-09-06T09:05:33.158Z,4.90
2022-09-06T09:08:20.655Z,4.63
2022-09-06T09:10:50.510Z,2.47
2022-09-06T09:13:44.591Z,2.85
2022-09-06T09:16:11.959Z,2.93
2022-09-06T09:18:42.540Z,2.47
2022-09-06T09:21:10.642Z,3.00
2022-09-06T09:23:37.576Z,2.40
2022-09-06T09:26:12.415Z,2.45
2022-09-06T09:28:39.295Z,4.90
2022-09-06T09:31:07.347Z,4.78
2022-09-06T09:33:38.759Z,3.10
2022-09-06T09:36:13.176Z,5.55
2022-09-06T09:38:45.915Z,7.10
2022-09-06T09:45:00.461Z,2.72
2022-09-06T09:47:32.903Z,3.10
2022-09-06T09:50:00.517Z,1.73
2022-09-06T09:52:32.036Z,4.63
2022-09-06T09:55:10.971Z,3.38
2022-09-06T09:57:47.447Z,4.15
2022-09-06T10:00:14.755Z,1.83
2022-09-06T10:02:42.628Z,4.10
2022-09-06T10:05:13.011Z,1.40
2022-09-06T10:07:50.346Z,3.25
2022-09-06T10:10:42.622Z,4.90
2022-09-06T10:13:30.828Z,1.83
2022-09-06T10:15:59.905Z,6.10
2022-09-06T10:18:32.707Z,1.42
2022-09-06T10:21:29.506Z,2.47
2022-09-06T10:24:31.528Z,5.25
2022-09-06T10:27:03.010Z,1.60
2022-09-06T10:29:41.077Z,2.28
2022-09-06T10:32:35.026Z,1.27
2022-09-06T10:35:11.109Z,2.50
2022-09-06T10:37:50.006Z,1.95
2022-09-06T10:40:43.319Z,2.88
2022-09-06T10:43:18.756Z,2.25
2022-09-06T10:45:58.231Z,4.47
2022-09-06T10:48:32.435Z,2.40
2022-09-06T10:54:10.702Z,2.50
2022-09-06T10:56:45.476Z,2.72
2022-09-06T10:59:37.975Z,1.65
2022-09-06T11:02:41.060Z,2.20
2022-09-06T11:10:56.067Z,4.22
2022-09-06T11:13:27.045Z,2.47
2022-09-06T11:16:19.658Z,3.00
2022-09-06T11:19:07.199Z,4.80
2022-09-06T11:21:51.146Z,4.72
2022-09-06T11:24:39.216Z,1.55
2022-09-06T11:27:31.757Z,1.00
2022-09-06T11:30:01.098Z,3.22
2022-09-06T11:32:33.397Z,1.55
2022-09-06T11:35:04.708Z,1.20
2022-09-06T11:37:39.707Z,4.38
2022-09-06T11:40:30.244Z,1.38
2022-09-06T11:42:59.471Z,2.17
2022-09-06T11:45:41.130Z,2.95
2022-09-06T11:48:35.240Z,1.90
2022-09-06T11:51:11.047Z,1.75
2022-09-06T11:53:49.886Z,3.20
2022-09-06T11:56:39.767Z,2.85
2022-09-06T11:59:31.879Z,2.33
2022-09-06T12:02:07.763Z,1.55
2022-09-06T12:05:04.744Z,2.67
2022-09-06T12:07:33.909Z,1.17
2022-09-06T12:10:31.496Z,1.15
2022-09-06T12:12:59.159Z,3.78
2022-09-06T12:15:29.380Z,0.75
2022-09-06T12:17:57.691Z,1.92
2022-09-06T12:20:49.428Z,1.23
2022-09-06T12:23:36.522Z,2.17
2022-09-06T12:26:04.745Z,1.40
2022-09-06T12:28:42.170Z,1.60
2022-09-06T12:31:32.922Z,2.28
2022-09-06T12:34:26.021Z,1.33
2022-09-06T12:36:59.197Z,1.20
2022-09-06T12:39:26.335Z,1.30
2022-09-06T12:41:59.748Z,1.42
2022-09-06T12:44:33.498Z,1.17
2022-09-06T12:47:06.085Z,1.77
2022-09-06T12:49:33.569Z,1.15
2022-09-06T12:52:09.549Z,1.52
2022-09-06T12:54:44.010Z,1.55
2022-09-06T12:57:26.101Z,1.70
2022-09-06T12:59:57.666Z,1.35
2022-09-06T13:02:33.918Z,2.55
2022-09-06T13:05:05.638Z,0.88
2022-09-06T13:07:35.533Z,1.27
2022-09-06T13:10:03.396Z,2.08
2022-09-06T13:12:36.696Z,4.32
2022-09-06T13:15:25.296Z,3.60
2022-09-06T13:17:53.977Z,1.17
2022-09-06T13:20:30.408Z,2.03
2022-09-06T13:23:13.109Z,1.38
2022-09-06T13:25:52.191Z,1.95
2022-09-06T13:28:33.580Z,1.55
2022-09-06T13:31:18.282Z,1.48
2022-09-06T13:33:46.565Z,1.58
2022-09-06T13:36:26.714Z,1.35
2022-09-06T13:38:54.658Z,1.83
2022-09-06T13:41:27.630Z,1.73
2022-09-06T13:44:19.867Z,1.42
2022-09-06T13:46:47.079Z,3.25
2022-09-06T13:49:14.609Z,3.22
2022-09-06T13:51:43.419Z,0.88
2022-09-06T13:54:13.050Z,2.17
2022-09-06T13:56:41.765Z,2.25
2022-09-06T13:59:12.319Z,1.50
2022-09-06T14:01:41.506Z,1.67
2022-09-06T14:04:13.014Z,1.88
2022-09-06T14:06:40.562Z,1.63
2022-09-06T14:09:08.570Z,1.65
2022-09-06T14:11:36.177Z,2.00
2022-09-06T14:14:03.799Z,1.25
2022-09-06T14:16:30.858Z,2.42
2022-09-06T14:18:58.077Z,1.75
2022-09-06T14:21:25.021Z,14.48
2022-09-06T14:23:53.033Z,2.20
2022-09-06T14:26:23.535Z,1.45
2022-09-06T14:28:51.064Z,17.63
2022-09-06T14:31:20.795Z,2.70
2022-09-06T14:37:35.027Z,4.30
2022-09-06T14:40:02.091Z,1.60
2022-09-06T14:42:29.104Z,1.80
2022-09-06T14:44:55.982Z,1.30
2022-09-06T14:47:22.916Z,1.30
2022-09-06T14:49:49.804Z,2.03
2022-09-06T14:52:16.674Z,3.58
2022-09-06T14:54:43.576Z,1.80
2022-09-06T14:57:10.434Z,0.98
2022-09-06T14:59:37.321Z,1.75
2022-09-06T15:02:04.368Z,0.98
2022-09-06T15:04:31.255Z,1.27
2022-09-06T15:06:58.948Z,0.93
2022-09-06T15:09:25.930Z,1.13
2022-09-06T15:11:53.391Z,2.00
2022-09-06T15:14:22.673Z,1.20
2022-09-06T15:16:55.937Z,1.75
2022-09-06T15:19:24.862Z,1.73
2022-09-06T15:21:51.852Z,1.33
2022-09-06T15:24:18.912Z,3.58
2022-09-06T15:26:46.056Z,2.50
2022-09-06T15:29:13.873Z,1.27
2022-09-06T15:31:42.603Z,1.67
2022-09-06T15:34:10.556Z,1.90
2022-09-06T15:36:37.851Z,1.60
2022-09-06T15:39:06.152Z,3.30
2022-09-06T15:41:36.246Z,1.95
2022-09-06T15:44:11.847Z,1.90
2022-09-06T15:46:43.951Z,1.92
2022-09-06T15:49:16.734Z,1.90
2022-09-06T15:51:44.158Z,2.25
2022-09-06T15:54:14.126Z,2.65
2022-09-06T15:56:41.735Z,3.50
2022-09-06T15:59:08.993Z,1.73
2022-09-06T16:01:36.867Z,2.95
2022-09-06T16:04:06.129Z,3.22
2022-09-06T16:06:42.708Z,1.55
2022-09-06T16:09:14.535Z,3.08
2022-09-06T16:11:42.121Z,1.98
2022-09-06T16:14:12.542Z,1.67
2022-09-06T16:16:40.516Z,1.50
2022-09-06T16:19:08.357Z,2.35
2022-09-06T16:21:37.907Z,2.25
2022-09-06T16:24:08.074Z,1.90
2022-09-06T16:26:38.097Z,1.60
2022-09-06T16:29:06.951Z,1.98
2022-09-06T16:31:39.106Z,2.58
2022-09-06T16:34:07.921Z,2.08
2022-09-06T16:36:34.956Z,1.73
2022-09-06T16:39:01.957Z,2.38
2022-09-06T16:41:34.411Z,5.50
2022-09-06T16:44:01.417Z,1.80
2022-09-06T16:46:31.278Z,2.20
2022-09-06T16:49:01.608Z,1.80
2022-09-06T16:51:29.764Z,3.58
2022-09-06T16:53:57.680Z,1.80
2022-09-06T16:56:31.900Z,1.90
2022-09-06T16:59:00.496Z,1.83
2022-09-06T17:01:29.831Z,2.10
2022-09-06T17:03:57.688Z,2.65
2022-09-06T17:06:25.811Z,2.60
2022-09-06T17:08:52.692Z,2.92
2022-09-06T17:11:22.383Z,4.40
2022-09-06T17:13:51.634Z,2.92
2022-09-06T17:16:37.789Z,2.70
2022-09-06T17:19:06.232Z,2.17
2022-09-06T17:21:33.518Z,2.40
2022-09-06T17:24:03.108Z,3.90
2022-09-06T17:26:30.999Z,4.93
2022-09-06T17:28:58.110Z,4.35
2022-09-06T17:31:26.204Z,4.35
2022-09-06T17:33:53.563Z,2.55
2022-09-06T17:36:23.843Z,3.90
2022-09-06T17:38:53.572Z,2.65
2022-09-06T17:41:24.437Z,4.70
2022-09-06T17:43:54.137Z,4.28
2022-09-06T17:46:28.662Z,2.88
2022-09-06T17:48:56.475Z,5.05
2022-09-06T17:51:24.390Z,3.05
2022-09-06T17:53:52.421Z,2.83
2022-09-06T17:56:20.602Z,3.30
2022-09-06T17:58:59.502Z,2.85
2022-09-06T18:01:31.389Z,3.60
2022-09-06T18:03:59.390Z,7.53
2022-09-06T18:06:29.120Z,3.35
2022-09-06T18:08:58.371Z,4.40
2022-09-06T18:11:31.995Z,3.88
2022-09-06T18:14:07.931Z,5.53
2022-09-06T18:16:36.808Z,3.45
2022-09-06T18:19:05.589Z,4.28
2022-09-06T18:21:35.589Z,3.85
2022-09-06T18:24:03.096Z,3.17
2022-09-06T18:26:30.000Z,4.35
2022-09-06T18:28:57.264Z,4.22
2022-09-06T18:31:26.127Z,2.60
2022-09-06T18:33:55.826Z,4.00
2022-09-06T18:36:22.892Z,4.25
2022-09-06T18:38:49.956Z,2.50
2022-09-06T18:41:35.894Z,3.28
2022-09-06T18:44:04.886Z,3.47
2022-09-06T18:46:34.113Z,3.95
2022-09-06T18:49:01.146Z,3.53
2022-09-06T18:51:28.642Z,4.65
2022-09-06T18:53:57.564Z,4.50
2022-09-06T18:56:25.359Z,3.55
2022-09-06T18:58:59.799Z,2.90
2022-09-06T19:03:57.758Z,4.32
2022-09-06T19:06:26.221Z,4.03
2022-09-06T19:08:53.992Z,3.70
2022-09-06T19:11:22.267Z,5.65
2022-09-06T19:13:54.613Z,3.65
2022-09-06T19:16:23.354Z,3.42
2022-09-06T19:18:51.023Z,4.47
2022-09-06T19:21:22.329Z,3.92
2022-09-06T19:23:57.439Z,4.32
2022-09-06T19:26:25.921Z,5.55
2022-09-06T19:28:58.775Z,4.13
2022-09-06T19:31:28.489Z,4.53
2022-09-06T19:33:56.543Z,4.45
2022-09-06T19:36:25.085Z,3.95
2022-09-06T19:39:06.937Z,3.90
2022-09-06T19:41:38.808Z,6.13
2022-09-06T19:44:08.711Z,3.42
2022-09-06T19:46:36.721Z,5.22
2022-09-06T19:49:05.221Z,3.63
2022-09-06T19:51:33.214Z,4.63
2022-09-06T19:54:00.493Z,5.72
2022-09-06T19:56:31.719Z,5.32
2022-09-06T19:59:01.141Z,4.72
2022-09-06T20:01:31.181Z,3.78
2022-09-06T20:03:58.910Z,4.07
2022-09-06T20:06:26.976Z,5.78
2022-09-06T20:08:56.205Z,4.55
2022-09-06T20:11:26.508Z,5.70
2022-09-06T20:13:53.802Z,6.05
2022-09-06T20:20:02.779Z,6.40
2022-09-06T20:26:18.127Z,8.05
2022-09-06T20:28:45.825Z,7.30
2022-09-06T20:31:18.619Z,8.10
2022-09-06T20:33:49.475Z,7.90
2022-09-06T20:36:18.353Z,11.20
2022-09-06T20:38:47.143Z,6.40
2022-09-06T20:41:15.239Z,6.32
2022-09-06T20:43:42.686Z,8.77
2022-09-06T20:46:14.148Z,5.85
2022-09-06T20:48:44.759Z,7.28
2022-09-06T20:51:19.129Z,8.85
2022-09-06T20:53:48.602Z,8.05
2022-09-06T20:56:19.261Z,6.90
2022-09-06T20:58:51.613Z,8.55
2022-09-06T21:01:22.797Z,7.50
2022-09-06T21:03:52.359Z,8.32
2022-09-06T21:06:20.610Z,8.13
2022-09-06T21:08:48.116Z,9.00
2022-09-06T21:11:15.619Z,6.70
2022-09-06T21:13:42.735Z,7.65
2022-09-06T21:16:09.971Z,5.47
2022-09-06T21:18:36.918Z,6.45
2022-09-06T21:21:06.304Z,9.15
2022-09-06T21:23:35.994Z,6.75
2022-09-06T21:26:08.149Z,7.38
2022-09-06T21:28:37.554Z,8.32
2022-09-06T21:31:08.269Z,11.90
2022-09-06T21:33:37.015Z,6.32
2022-09-06T21:36:07.094Z,7.22
2022-09-06T21:38:35.684Z,7.63
2022-09-06T21:41:03.283Z,6.13
2022-09-06T21:43:30.686Z,6.07
2022-09-06T21:46:04.524Z,5.28
2022-09-06T21:48:31.624Z,5.97
2022-09-06T21:50:58.648Z,7.70
2022-09-06T21:53:27.230Z,7.80
2022-09-06T21:56:00.398Z,7.97
2022-09-06T21:58:27.864Z,7.88
2022-09-06T22:00:59.361Z,7.22
2022-09-06T22:03:28.116Z,7.50
2022-09-06T22:05:56.042Z,6.45
2022-09-06T22:08:24.187Z,6.60
2022-09-06T22:10:51.715Z,5.88
2022-09-06T22:13:20.150Z,6.75
2022-09-06T22:15:47.553Z,5.70
2022-09-06T22:18:14.656Z,6.38
2022-09-06T22:20:41.883Z,7.10
2022-09-06T22:23:10.064Z,8.48
2022-09-06T22:25:37.165Z,6.78
2022-09-06T22:28:04.189Z,7.35
2022-09-06T22:30:31.214Z,5.68
2022-09-06T22:32:58.297Z,6.05
2022-09-06T22:35:25.296Z,7.57
2022-09-06T22:37:52.321Z,5.80
2022-09-06T22:40:19.468Z,4.90
2022-09-06T22:42:46.506Z,6.55
2022-09-06T22:45:13.562Z,6.18
2022-09-06T22:47:40.620Z,6.10
2022-09-06T22:50:08.644Z,7.88
2022-09-06T22:52:35.652Z,5.20
2022-09-06T22:55:02.905Z,6.13
2022-09-06T22:57:29.916Z,4.72
2022-09-06T22:59:56.973Z,6.15
2022-09-06T23:02:24.044Z,5.72
2022-09-06T23:04:51.591Z,5.75
2022-09-06T23:07:18.738Z,7.93
2022-09-06T23:09:45.755Z,5.53
2022-09-06T23:12:12.852Z,6.32
2022-09-06T23:14:39.892Z,4.60
2022-09-06T23:17:07.208Z,4.95
2022-09-06T23:19:34.198Z,4.43
2022-09-06T23:22:01.222Z,4.65
2022-09-06T23:24:28.494Z,5.85
2022-09-06T23:26:55.875Z,6.82
2022-09-06T23:29:23.081Z,3.97
2022-09-06T23:31:50.248Z,4.70
2022-09-06T23:34:17.303Z,5.63
2022-09-06T23:36:44.383Z,4.78
2022-09-06T23:39:11.730Z,5.22
2022-09-06T23:41:38.778Z,6.43
2022-09-06T23:44:05.951Z,7.10
2022-09-06T23:46:33.206Z,4.50
2022-09-06T23:49:00.308Z,6.40
2022-09-06T23:51:27.428Z,3.92
2022-09-06T23:53:54.523Z,6.20
2022-09-06T23:56:22.502Z,4.35
2022-09-06T23:58:49.563Z,5.63
